Brookville, Illinois
Current Conditions -  °F | °C
As of 7:15 AM on Thursday 27 Nov 2014 (Local Time) from KFEP Reporting Station
Light Snow Light Snow  
Wind Chill: 14°   Ceiling: 3400
Heat Index: 23°   Visibility: 10mi
Dew Point: 19°   Wind: 8mph
Humidity: 84%   Direction: 300°WNW
Pressure: 30.34"   Gusts: NA
Location:  41.9978°N, 89.6213°W
Report Text: KFEP 271315Z AUTO 30007KT 10SM -SN OVC034 M05/M07 A3034 RMK AO2 T10491073
Loading
Personal Weather Stations






























Interactive Weather Map New forecast layout! Learn more

10-Day Weather Forecast

Advertisements
Track Severe Weather on mobile